sensor_id;sensor_type;location;lat;lon;timestamp;temperature;humidity
23597;DHT22;40226;50.874;4.394;2023-04-01T00:00:48;9.60;99.90
23597;DHT22;40226;50.874;4.394;2023-04-01T00:03:14;9.60;99.90
23597;DHT22;40226;50.874;4.394;2023-04-01T00:05:40;9.60;99.90
23597;DHT22;40226;50.874;4.394;2023-04-01T00:08:05;9.60;99.90
23597;DHT22;40226;50.874;4.394;2023-04-01T00:10:31;9.60;99.90
23597;DHT22;40226;50.874;4.394;2023-04-01T00:12:57;9.60;99.90
23597;DHT22;40226;50.874;4.394;2023-04-01T00:15:22;9.60;99.90
23597;DHT22;40226;50.874;4.394;2023-04-01T00:17:48;9.60;99.90
23597;DHT22;40226;50.874;4.394;2023-04-01T00:20:15;9.60;99.90
23597;DHT22;40226;50.874;4.394;2023-04-01T00:22:41;9.60;99.90
23597;DHT22;40226;50.874;4.394;2023-04-01T00:25:07;9.60;99.90
23597;DHT22;40226;50.874;4.394;2023-04-01T00:27:33;9.60;99.90
23597;DHT22;40226;50.874;4.394;2023-04-01T00:29:58;9.60;99.90
23597;DHT22;40226;50.874;4.394;2023-04-01T00:32:24;9.60;99.90
23597;DHT22;40226;50.874;4.394;2023-04-01T00:34:51;9.60;99.90
23597;DHT22;40226;50.874;4.394;2023-04-01T00:37:17;9.60;99.90
23597;DHT22;40226;50.874;4.394;2023-04-01T00:39:44;9.60;99.90
23597;DHT22;40226;50.874;4.394;2023-04-01T00:42:11;9.60;99.90
23597;DHT22;40226;50.874;4.394;2023-04-01T00:44:38;9.60;99.90
23597;DHT22;40226;50.874;4.394;2023-04-01T00:47:04;9.60;99.90
23597;DHT22;40226;50.874;4.394;2023-04-01T00:49:33;9.60;99.90
23597;DHT22;40226;50.874;4.394;2023-04-01T00:52:03;9.60;99.90
23597;DHT22;40226;50.874;4.394;2023-04-01T00:54:31;9.70;99.90
23597;DHT22;40226;50.874;4.394;2023-04-01T00:56:59;9.70;99.90
23597;DHT22;40226;50.874;4.394;2023-04-01T00:59:31;9.80;99.90
23597;DHT22;40226;50.874;4.394;2023-04-01T01:01:58;9.70;99.90
23597;DHT22;40226;50.874;4.394;2023-04-01T01:04:31;9.70;99.90
23597;DHT22;40226;50.874;4.394;2023-04-01T01:07:03;9.70;99.90
23597;DHT22;40226;50.874;4.394;2023-04-01T01:09:41;9.70;99.90
23597;DHT22;40226;50.874;4.394;2023-04-01T01:23:19;9.70;99.90
23597;DHT22;40226;50.874;4.394;2023-04-01T01:25:32;9.80;99.90
23597;DHT22;40226;50.874;4.394;2023-04-01T01:36:34;9.70;99.90
23597;DHT22;40226;50.874;4.394;2023-04-01T01:39:03;9.70;99.90
23597;DHT22;40226;50.874;4.394;2023-04-01T01:41:31;9.60;99.90
23597;DHT22;40226;50.874;4.394;2023-04-01T01:43:59;9.70;99.90
23597;DHT22;40226;50.874;4.394;2023-04-01T01:46:28;9.80;99.90
23597;DHT22;40226;50.874;4.394;2023-04-01T01:48:56;9.80;99.90
23597;DHT22;40226;50.874;4.394;2023-04-01T01:51:22;9.80;99.90
23597;DHT22;40226;50.874;4.394;2023-04-01T01:53:49;9.70;99.90
23597;DHT22;40226;50.874;4.394;2023-04-01T01:56:18;9.80;99.90
23597;DHT22;40226;50.874;4.394;2023-04-01T01:58:49;9.90;99.90
23597;DHT22;40226;50.874;4.394;2023-04-01T02:01:22;9.90;99.90
23597;DHT22;40226;50.874;4.394;2023-04-01T02:03:49;9.80;99.90
23597;DHT22;40226;50.874;4.394;2023-04-01T02:06:18;9.90;99.90
23597;DHT22;40226;50.874;4.394;2023-04-01T02:08:56;9.90;99.90
23597;DHT22;40226;50.874;4.394;2023-04-01T02:11:30;9.90;99.90
23597;DHT22;40226;50.874;4.394;2023-04-01T02:14:01;9.80;99.90
23597;DHT22;40226;50.874;4.394;2023-04-01T02:18:58;9.90;99.90
23597;DHT22;40226;50.874;4.394;2023-04-01T02:21:29;10.00;99.90
23597;DHT22;40226;50.874;4.394;2023-04-01T02:23:56;10.00;99.90
23597;DHT22;40226;50.874;4.394;2023-04-01T02:26:24;9.80;99.90
23597;DHT22;40226;50.874;4.394;2023-04-01T02:28:53;9.70;99.90
23597;DHT22;40226;50.874;4.394;2023-04-01T02:31:20;9.80;99.90
23597;DHT22;40226;50.874;4.394;2023-04-01T02:33:47;9.80;99.90
23597;DHT22;40226;50.874;4.394;2023-04-01T02:36:14;9.70;99.90
23597;DHT22;40226;50.874;4.394;2023-04-01T02:38:43;9.50;99.90
23597;DHT22;40226;50.874;4.394;2023-04-01T02:41:10;9.50;99.90
23597;DHT22;40226;50.874;4.394;2023-04-01T02:43:36;9.50;99.90
23597;DHT22;40226;50.874;4.394;2023-04-01T02:46:01;9.40;99.90
23597;DHT22;40226;50.874;4.394;2023-04-01T02:48:27;9.50;99.90
23597;DHT22;40226;50.874;4.394;2023-04-01T02:50:53;9.50;99.90
23597;DHT22;40226;50.874;4.394;2023-04-01T02:53:19;9.50;99.90
23597;DHT22;40226;50.874;4.394;2023-04-01T02:55:45;9.40;99.90
23597;DHT22;40226;50.874;4.394;2023-04-01T02:58:11;9.50;99.90
23597;DHT22;40226;50.874;4.394;2023-04-01T03:00:37;9.50;99.90
23597;DHT22;40226;50.874;4.394;2023-04-01T03:03:03;9.50;99.90
23597;DHT22;40226;50.874;4.394;2023-04-01T03:05:29;9.40;99.90
23597;DHT22;40226;50.874;4.394;2023-04-01T03:07:54;9.60;99.90
23597;DHT22;40226;50.874;4.394;2023-04-01T03:10:20;9.70;99.90
23597;DHT22;40226;50.874;4.394;2023-04-01T03:12:46;9.80;99.90
23597;DHT22;40226;50.874;4.394;2023-04-01T03:15:12;9.70;99.90
23597;DHT22;40226;50.874;4.394;2023-04-01T03:17:40;9.70;99.90
23597;DHT22;40226;50.874;4.394;2023-04-01T03:20:07;9.70;99.90
23597;DHT22;40226;50.874;4.394;2023-04-01T03:22:34;9.70;99.90
23597;DHT22;40226;50.874;4.394;2023-04-01T03:25:02;9.70;99.90
23597;DHT22;40226;50.874;4.394;2023-04-01T03:27:28;9.80;99.90
23597;DHT22;40226;50.874;4.394;2023-04-01T03:29:54;9.80;99.90
23597;DHT22;40226;50.874;4.394;2023-04-01T03:32:19;9.80;99.90
23597;DHT22;40226;50.874;4.394;2023-04-01T03:34:45;9.70;99.90
23597;DHT22;40226;50.874;4.394;2023-04-01T03:37:11;9.60;99.90
23597;DHT22;40226;50.874;4.394;2023-04-01T03:39:36;9.60;99.90
23597;DHT22;40226;50.874;4.394;2023-04-01T03:42:02;9.60;99.90
23597;DHT22;40226;50.874;4.394;2023-04-01T03:44:32;9.60;99.90
23597;DHT22;40226;50.874;4.394;2023-04-01T03:46:58;9.70;99.90
23597;DHT22;40226;50.874;4.394;2023-04-01T03:49:24;9.60;99.90
23597;DHT22;40226;50.874;4.394;2023-04-01T03:51:50;9.60;99.90
23597;DHT22;40226;50.874;4.394;2023-04-01T03:54:16;9.60;99.90
23597;DHT22;40226;50.874;4.394;2023-04-01T03:56:42;9.60;99.90
23597;DHT22;40226;50.874;4.394;2023-04-01T03:59:08;9.60;99.90
23597;DHT22;40226;50.874;4.394;2023-04-01T04:01:34;9.60;99.90
23597;DHT22;40226;50.874;4.394;2023-04-01T04:03:59;9.70;99.90
23597;DHT22;40226;50.874;4.394;2023-04-01T04:06:26;9.70;99.90
23597;DHT22;40226;50.874;4.394;2023-04-01T04:08:52;9.60;99.90
23597;DHT22;40226;50.874;4.394;2023-04-01T04:11:18;9.80;99.90
23597;DHT22;40226;50.874;4.394;2023-04-01T04:13:44;9.80;99.90
23597;DHT22;40226;50.874;4.394;2023-04-01T04:16:10;9.80;99.90
23597;DHT22;40226;50.874;4.394;2023-04-01T04:18:37;9.80;99.90
23597;DHT22;40226;50.874;4.394;2023-04-01T04:21:03;9.90;99.90
23597;DHT22;40226;50.874;4.394;2023-04-01T04:23:29;9.70;99.90
23597;DHT22;40226;50.874;4.394;2023-04-01T04:26:01;9.90;99.90
23597;DHT22;40226;50.874;4.394;2023-04-01T04:28:28;10.00;99.90
23597;DHT22;40226;50.874;4.394;2023-04-01T04:30:54;9.80;99.90
23597;DHT22;40226;50.874;4.394;2023-04-01T04:33:21;9.80;99.90
23597;DHT22;40226;50.874;4.394;2023-04-01T04:35:47;9.70;99.90
23597;DHT22;40226;50.874;4.394;2023-04-01T04:38:13;9.70;99.90
23597;DHT22;40226;50.874;4.394;2023-04-01T04:40:39;9.70;99.90
23597;DHT22;40226;50.874;4.394;2023-04-01T04:43:05;9.80;99.90
23597;DHT22;40226;50.874;4.394;2023-04-01T04:45:31;9.80;99.90
23597;DHT22;40226;50.874;4.394;2023-04-01T04:47:57;9.80;99.90
23597;DHT22;40226;50.874;4.394;2023-04-01T04:50:23;9.70;99.90
23597;DHT22;40226;50.874;4.394;2023-04-01T04:52:49;9.50;99.90
23597;DHT22;40226;50.874;4.394;2023-04-01T04:55:15;9.50;99.90
23597;DHT22;40226;50.874;4.394;2023-04-01T04:57:40;9.40;99.90
23597;DHT22;40226;50.874;4.394;2023-04-01T05:00:07;9.50;99.90
23597;DHT22;40226;50.874;4.394;2023-04-01T05:02:33;9.50;99.90
23597;DHT22;40226;50.874;4.394;2023-04-01T05:04:59;9.50;99.90
23597;DHT22;40226;50.874;4.394;2023-04-01T05:07:25;9.40;99.90
23597;DHT22;40226;50.874;4.394;2023-04-01T05:09:50;9.50;99.90
23597;DHT22;40226;50.874;4.394;2023-04-01T05:12:16;9.60;99.90
23597;DHT22;40226;50.874;4.394;2023-04-01T05:14:42;9.70;99.90
23597;DHT22;40226;50.874;4.394;2023-04-01T05:17:11;9.80;99.90
23597;DHT22;40226;50.874;4.394;2023-04-01T05:19:38;9.90;99.90
23597;DHT22;40226;50.874;4.394;2023-04-01T05:22:04;9.90;99.90
23597;DHT22;40226;50.874;4.394;2023-04-01T05:24:32;9.70;99.90
23597;DHT22;40226;50.874;4.394;2023-04-01T05:26:58;9.80;99.90
23597;DHT22;40226;50.874;4.394;2023-04-01T05:29:25;9.70;99.90
23597;DHT22;40226;50.874;4.394;2023-04-01T05:31:51;9.50;99.90
23597;DHT22;40226;50.874;4.394;2023-04-01T05:34:16;9.50;99.90
23597;DHT22;40226;50.874;4.394;2023-04-01T05:36:42;9.50;99.90
23597;DHT22;40226;50.874;4.394;2023-04-01T05:39:08;9.50;99.90
23597;DHT22;40226;50.874;4.394;2023-04-01T05:41:38;9.50;99.90
23597;DHT22;40226;50.874;4.394;2023-04-01T05:44:05;9.50;99.90
23597;DHT22;40226;50.874;4.394;2023-04-01T05:46:31;9.50;99.90
23597;DHT22;40226;50.874;4.394;2023-04-01T05:48:57;9.50;99.90
23597;DHT22;40226;50.874;4.394;2023-04-01T05:51:22;9.40;99.90
23597;DHT22;40226;50.874;4.394;2023-04-01T05:53:48;9.40;99.90
23597;DHT22;40226;50.874;4.394;2023-04-01T05:56:14;9.50;99.90
23597;DHT22;40226;50.874;4.394;2023-04-01T05:58:40;9.50;99.90
23597;DHT22;40226;50.874;4.394;2023-04-01T06:01:07;9.60;99.90
23597;DHT22;40226;50.874;4.394;2023-04-01T06:03:33;9.60;99.90
23597;DHT22;40226;50.874;4.394;2023-04-01T06:05:59;9.60;99.90
23597;DHT22;40226;50.874;4.394;2023-04-01T06:08:27;9.60;99.90
23597;DHT22;40226;50.874;4.394;2023-04-01T06:25:54;9.50;99.90
23597;DHT22;40226;50.874;4.394;2023-04-01T06:39:57;9.40;99.90
23597;DHT22;40226;50.874;4.394;2023-04-01T06:48:37;9.40;99.90
23597;DHT22;40226;50.874;4.394;2023-04-01T06:56:26;9.60;99.90
23597;DHT22;40226;50.874;4.394;2023-04-01T06:59:00;9.50;99.90
23597;DHT22;40226;50.874;4.394;2023-04-01T07:01:37;9.40;99.90
23597;DHT22;40226;50.874;4.394;2023-04-01T07:09:25;9.60;99.90
23597;DHT22;40226;50.874;4.394;2023-04-01T07:11:53;9.70;99.90
23597;DHT22;40226;50.874;4.394;2023-04-01T07:14:35;9.80;99.90
23597;DHT22;40226;50.874;4.394;2023-04-01T07:17:17;9.80;99.90
23597;DHT22;40226;50.874;4.394;2023-04-01T07:19:52;10.00;99.90
23597;DHT22;40226;50.874;4.394;2023-04-01T07:22:39;9.80;99.90
23597;DHT22;40226;50.874;4.394;2023-04-01T07:25:15;9.60;99.90
23597;DHT22;40226;50.874;4.394;2023-04-01T07:27:43;9.70;99.90
23597;DHT22;40226;50.874;4.394;2023-04-01T07:30:16;9.70;99.90
23597;DHT22;40226;50.874;4.394;2023-04-01T07:35:26;9.70;99.90
23597;DHT22;40226;50.874;4.394;2023-04-01T07:38:20;9.70;99.90
23597;DHT22;40226;50.874;4.394;2023-04-01T07:41:13;9.80;99.90
23597;DHT22;40226;50.874;4.394;2023-04-01T07:55:10;9.80;99.90
23597;DHT22;40226;50.874;4.394;2023-04-01T07:57:49;9.80;99.90
23597;DHT22;40226;50.874;4.394;2023-04-01T08:00:22;10.00;99.90
23597;DHT22;40226;50.874;4.394;2023-04-01T08:03:12;10.00;99.90
23597;DHT22;40226;50.874;4.394;2023-04-01T08:06:03;9.90;99.90
23597;DHT22;40226;50.874;4.394;2023-04-01T08:16:45;9.70;99.90
23597;DHT22;40226;50.874;4.394;2023-04-01T08:19:21;9.80;99.90
23597;DHT22;40226;50.874;4.394;2023-04-01T08:21:57;9.90;99.90
23597;DHT22;40226;50.874;4.394;2023-04-01T08:24:44;9.90;99.90
23597;DHT22;40226;50.874;4.394;2023-04-01T08:29:48;9.90;99.90
23597;DHT22;40226;50.874;4.394;2023-04-01T08:32:20;9.80;99.90
23597;DHT22;40226;50.874;4.394;2023-04-01T08:34:55;9.60;99.90
23597;DHT22;40226;50.874;4.394;2023-04-01T08:37:30;9.60;99.90
23597;DHT22;40226;50.874;4.394;2023-04-01T08:40:04;9.60;99.90
23597;DHT22;40226;50.874;4.394;2023-04-01T08:43:16;9.70;99.90
23597;DHT22;40226;50.874;4.394;2023-04-01T08:46:07;9.80;99.90
23597;DHT22;40226;50.874;4.394;2023-04-01T08:56:41;10.10;99.90
23597;DHT22;40226;50.874;4.394;2023-04-01T08:59:30;10.30;99.90
23597;DHT22;40226;50.874;4.394;2023-04-01T09:05:18;9.90;99.90
23597;DHT22;40226;50.874;4.394;2023-04-01T09:27:29;10.20;99.90
23597;DHT22;40226;50.874;4.394;2023-04-01T09:38:36;10.30;99.90
23597;DHT22;40226;50.874;4.394;2023-04-01T09:41:23;10.20;99.90
23597;DHT22;40226;50.874;4.394;2023-04-01T09:44:02;10.20;99.90
23597;DHT22;40226;50.874;4.394;2023-04-01T09:52:24;10.40;99.90
23597;DHT22;40226;50.874;4.394;2023-04-01T10:14:25;10.60;99.90
23597;DHT22;40226;50.874;4.394;2023-04-01T10:20:08;10.60;99.90
23597;DHT22;40226;50.874;4.394;2023-04-01T10:50:36;10.70;99.90
23597;DHT22;40226;50.874;4.394;2023-04-01T10:56:32;10.60;99.90
23597;DHT22;40226;50.874;4.394;2023-04-01T11:02:12;10.70;99.90
23597;DHT22;40226;50.874;4.394;2023-04-01T11:07:47;10.80;99.90
23597;DHT22;40226;50.874;4.394;2023-04-01T11:24:41;11.50;99.90
23597;DHT22;40226;50.874;4.394;2023-04-01T11:39:29;11.20;99.90
23597;DHT22;40226;50.874;4.394;2023-04-01T11:41:56;11.10;99.90
23597;DHT22;40226;50.874;4.394;2023-04-01T11:44:26;11.00;99.90
23597;DHT22;40226;50.874;4.394;2023-04-01T11:49:59;10.90;99.90
23597;DHT22;40226;50.874;4.394;2023-04-01T12:01:14;11.10;99.90
23597;DHT22;40226;50.874;4.394;2023-04-01T12:07:11;11.30;99.90
23597;DHT22;40226;50.874;4.394;2023-04-01T12:09:52;11.40;99.90
23597;DHT22;40226;50.874;4.394;2023-04-01T12:20:53;10.90;99.90
23597;DHT22;40226;50.874;4.394;2023-04-01T12:28:49;11.10;99.90
23597;DHT22;40226;50.874;4.394;2023-04-01T12:42:17;10.80;99.90
23597;DHT22;40226;50.874;4.394;2023-04-01T12:47:57;11.00;99.90
23597;DHT22;40226;50.874;4.394;2023-04-01T12:53:35;11.00;99.90
23597;DHT22;40226;50.874;4.394;2023-04-01T12:56:13;10.90;99.90
23597;DHT22;40226;50.874;4.394;2023-04-01T13:09:28;11.00;99.90
23597;DHT22;40226;50.874;4.394;2023-04-01T13:20:58;11.10;99.90
23597;DHT22;40226;50.874;4.394;2023-04-01T13:23:42;10.80;99.90
23597;DHT22;40226;50.874;4.394;2023-04-01T13:26:25;10.60;99.90
23597;DHT22;40226;50.874;4.394;2023-04-01T13:29:01;10.80;99.90
23597;DHT22;40226;50.874;4.394;2023-04-01T13:42:48;10.70;99.90
23597;DHT22;40226;50.874;4.394;2023-04-01T13:45:24;10.80;99.90
23597;DHT22;40226;50.874;4.394;2023-04-01T13:48:18;10.60;99.90
23597;DHT22;40226;50.874;4.394;2023-04-01T14:13:16;10.70;99.90
23597;DHT22;40226;50.874;4.394;2023-04-01T14:18:47;10.80;99.90
23597;DHT22;40226;50.874;4.394;2023-04-01T14:24:42;10.90;99.90
23597;DHT22;40226;50.874;4.394;2023-04-01T14:30:10;11.00;99.90
23597;DHT22;40226;50.874;4.394;2023-04-01T14:35:25;11.10;99.90
23597;DHT22;40226;50.874;4.394;2023-04-01T14:43:47;11.00;99.90
23597;DHT22;40226;50.874;4.394;2023-04-01T14:49:35;10.90;99.90
23597;DHT22;40226;50.874;4.394;2023-04-01T14:54:48;10.80;99.90
23597;DHT22;40226;50.874;4.394;2023-04-01T14:59:48;10.70;99.90
23597;DHT22;40226;50.874;4.394;2023-04-01T15:05:03;10.80;99.90
23597;DHT22;40226;50.874;4.394;2023-04-01T15:07:50;10.90;99.90
23597;DHT22;40226;50.874;4.394;2023-04-01T15:32:32;10.60;99.90
23597;DHT22;40226;50.874;4.394;2023-04-01T15:38:11;10.50;99.90
23597;DHT22;40226;50.874;4.394;2023-04-01T15:41:15;10.50;99.90
23597;DHT22;40226;50.874;4.394;2023-04-01T15:43:51;10.30;99.90
23597;DHT22;40226;50.874;4.394;2023-04-01T15:46:44;10.30;99.90
23597;DHT22;40226;50.874;4.394;2023-04-01T15:49:32;10.30;99.90
23597;DHT22;40226;50.874;4.394;2023-04-01T15:52:24;10.30;99.90
23597;DHT22;40226;50.874;4.394;2023-04-01T16:00:51;10.40;99.90
23597;DHT22;40226;50.874;4.394;2023-04-01T16:11:36;10.10;99.90
23597;DHT22;40226;50.874;4.394;2023-04-01T16:14:28;9.90;99.90
23597;DHT22;40226;50.874;4.394;2023-04-01T16:19:51;10.00;99.90
23597;DHT22;40226;50.874;4.394;2023-04-01T16:22:32;10.10;99.90
23597;DHT22;40226;50.874;4.394;2023-04-01T16:33:55;10.10;99.90
23597;DHT22;40226;50.874;4.394;2023-04-01T16:36:35;10.00;99.90
23597;DHT22;40226;50.874;4.394;2023-04-01T16:39:33;10.00;99.90
23597;DHT22;40226;50.874;4.394;2023-04-01T16:47:57;9.90;99.90
23597;DHT22;40226;50.874;4.394;2023-04-01T16:50:30;10.00;99.90
23597;DHT22;40226;50.874;4.394;2023-04-01T16:55:49;10.00;99.90
23597;DHT22;40226;50.874;4.394;2023-04-01T16:58:37;10.00;99.90
23597;DHT22;40226;50.874;4.394;2023-04-01T17:01:29;10.10;99.90
23597;DHT22;40226;50.874;4.394;2023-04-01T17:04:14;10.20;99.90
23597;DHT22;40226;50.874;4.394;2023-04-01T17:06:57;10.20;99.90
23597;DHT22;40226;50.874;4.394;2023-04-01T17:17:40;10.40;99.90
23597;DHT22;40226;50.874;4.394;2023-04-01T17:20:12;10.30;99.90
23597;DHT22;40226;50.874;4.394;2023-04-01T17:25:16;10.00;99.90
23597;DHT22;40226;50.874;4.394;2023-04-01T17:27:54;9.80;99.90
23597;DHT22;40226;50.874;4.394;2023-04-01T17:41:09;9.80;99.90
23597;DHT22;40226;50.874;4.394;2023-04-01T17:44:01;9.90;99.90
23597;DHT22;40226;50.874;4.394;2023-04-01T18:05:59;9.90;99.90
23597;DHT22;40226;50.874;4.394;2023-04-01T18:22:26;10.00;99.90
23597;DHT22;40226;50.874;4.394;2023-04-01T18:30:29;10.10;99.90
23597;DHT22;40226;50.874;4.394;2023-04-01T18:32:58;10.10;99.90
23597;DHT22;40226;50.874;4.394;2023-04-01T18:38:31;10.20;99.90
23597;DHT22;40226;50.874;4.394;2023-04-01T18:41:21;10.20;99.90
23597;DHT22;40226;50.874;4.394;2023-04-01T18:44:57;10.20;99.90
23597;DHT22;40226;50.874;4.394;2023-04-01T18:47:27;10.30;99.90
23597;DHT22;40226;50.874;4.394;2023-04-01T18:53:08;10.30;99.90
23597;DHT22;40226;50.874;4.394;2023-04-01T18:56:02;10.30;99.90
23597;DHT22;40226;50.874;4.394;2023-04-01T19:01:50;10.30;99.90
23597;DHT22;40226;50.874;4.394;2023-04-01T19:04:26;10.20;99.90
23597;DHT22;40226;50.874;4.394;2023-04-01T19:06:57;10.10;99.90
23597;DHT22;40226;50.874;4.394;2023-04-01T19:09:46;10.10;99.90
23597;DHT22;40226;50.874;4.394;2023-04-01T19:12:53;10.20;99.90
23597;DHT22;40226;50.874;4.394;2023-04-01T19:18:52;10.30;99.90
23597;DHT22;40226;50.874;4.394;2023-04-01T19:24:06;10.00;99.90
23597;DHT22;40226;50.874;4.394;2023-04-01T19:40:22;9.90;99.90
23597;DHT22;40226;50.874;4.394;2023-04-01T19:48:17;10.00;99.90
23597;DHT22;40226;50.874;4.394;2023-04-01T19:51:07;10.00;99.90
23597;DHT22;40226;50.874;4.394;2023-04-01T19:53:46;10.10;99.90
23597;DHT22;40226;50.874;4.394;2023-04-01T19:56:18;10.30;99.90
23597;DHT22;40226;50.874;4.394;2023-04-01T19:58:55;10.10;99.90
23597;DHT22;40226;50.874;4.394;2023-04-01T20:01:44;9.90;99.90
23597;DHT22;40226;50.874;4.394;2023-04-01T20:04:20;9.90;99.90
23597;DHT22;40226;50.874;4.394;2023-04-01T20:15:33;10.30;99.90
23597;DHT22;40226;50.874;4.394;2023-04-01T20:18:19;10.30;99.90
23597;DHT22;40226;50.874;4.394;2023-04-01T20:21:00;10.30;99.90
23597;DHT22;40226;50.874;4.394;2023-04-01T20:23:34;10.30;99.90
23597;DHT22;40226;50.874;4.394;2023-04-01T20:26:12;10.20;99.90
23597;DHT22;40226;50.874;4.394;2023-04-01T20:28:42;10.20;99.90
23597;DHT22;40226;50.874;4.394;2023-04-01T20:33:57;10.00;99.90
23597;DHT22;40226;50.874;4.394;2023-04-01T20:36:43;10.10;99.90
23597;DHT22;40226;50.874;4.394;2023-04-01T20:42:29;10.20;99.90
23597;DHT22;40226;50.874;4.394;2023-04-01T20:47:51;10.20;99.90
23597;DHT22;40226;50.874;4.394;2023-04-01T20:50:28;10.30;99.90
23597;DHT22;40226;50.874;4.394;2023-04-01T20:56:16;10.30;99.90
23597;DHT22;40226;50.874;4.394;2023-04-01T21:04:37;10.50;99.90
23597;DHT22;40226;50.874;4.394;2023-04-01T21:10:14;10.40;99.90
23597;DHT22;40226;50.874;4.394;2023-04-01T21:15:27;10.40;99.90
23597;DHT22;40226;50.874;4.394;2023-04-01T21:18:10;10.50;99.90
23597;DHT22;40226;50.874;4.394;2023-04-01T21:34:55;10.40;99.90
23597;DHT22;40226;50.874;4.394;2023-04-01T21:37:58;10.40;99.90
23597;DHT22;40226;50.874;4.394;2023-04-01T21:40:57;10.50;99.90
23597;DHT22;40226;50.874;4.394;2023-04-01T21:43:38;10.50;99.90
23597;DHT22;40226;50.874;4.394;2023-04-01T21:54:59;10.50;99.90
23597;DHT22;40226;50.874;4.394;2023-04-01T22:00:32;10.50;99.90
23597;DHT22;40226;50.874;4.394;2023-04-01T22:03:27;10.70;99.90
23597;DHT22;40226;50.874;4.394;2023-04-01T22:06:06;10.60;99.90
23597;DHT22;40226;50.874;4.394;2023-04-01T22:11:43;10.60;99.90
23597;DHT22;40226;50.874;4.394;2023-04-01T22:14:31;10.60;99.90
23597;DHT22;40226;50.874;4.394;2023-04-01T22:17:06;10.60;99.90
23597;DHT22;40226;50.874;4.394;2023-04-01T22:20:17;10.80;99.90
23597;DHT22;40226;50.874;4.394;2023-04-01T22:23:15;10.80;99.90
23597;DHT22;40226;50.874;4.394;2023-04-01T22:28:32;10.60;99.90
23597;DHT22;40226;50.874;4.394;2023-04-01T22:31:02;10.50;99.90
23597;DHT22;40226;50.874;4.394;2023-04-01T22:41:34;10.30;99.90
23597;DHT22;40226;50.874;4.394;2023-04-01T22:44:01;10.10;99.90
23597;DHT22;40226;50.874;4.394;2023-04-01T22:46:43;10.00;99.90
23597;DHT22;40226;50.874;4.394;2023-04-01T22:49:35;9.90;99.90
23597;DHT22;40226;50.874;4.394;2023-04-01T22:52:31;10.00;99.90
23597;DHT22;40226;50.874;4.394;2023-04-01T22:55:00;10.10;99.90
23597;DHT22;40226;50.874;4.394;2023-04-01T23:00:40;10.20;99.90
23597;DHT22;40226;50.874;4.394;2023-04-01T23:03:28;10.20;99.90
23597;DHT22;40226;50.874;4.394;2023-04-01T23:05:58;10.00;99.90
23597;DHT22;40226;50.874;4.394;2023-04-01T23:11:35;10.10;99.90
23597;DHT22;40226;50.874;4.394;2023-04-01T23:17:11;10.30;99.90
23597;DHT22;40226;50.874;4.394;2023-04-01T23:25:54;10.00;99.90
23597;DHT22;40226;50.874;4.394;2023-04-01T23:28:51;9.80;99.90
23597;DHT22;40226;50.874;4.394;2023-04-01T23:31:38;9.80;99.90
23597;DHT22;40226;50.874;4.394;2023-04-01T23:36:54;9.70;99.90
23597;DHT22;40226;50.874;4.394;2023-04-01T23:41:56;9.80;99.90
23597;DHT22;40226;50.874;4.394;2023-04-01T23:44:24;9.80;99.90
23597;DHT22;40226;50.874;4.394;2023-04-01T23:46:52;9.70;99.90
23597;DHT22;40226;50.874;4.394;2023-04-01T23:49:25;9.80;99.90
23597;DHT22;40226;50.874;4.394;2023-04-01T23:51:58;9.90;99.90
23597;DHT22;40226;50.874;4.394;2023-04-01T23:54:33;9.90;99.90
23597;DHT22;40226;50.874;4.394;2023-04-01T23:57:05;9.80;99.90
23597;DHT22;40226;50.874;4.394;2023-04-01T23:59:35;9.80;99.90
